KMML

Southwest Minnesota Regional Marshall / Ryan Field Airport

Marshall, Minnesota, USA
METAR KMML 221656Z AUTO VRB04KT 10SM CLR 22/15 A3003 RMK AO2 SLP167 T02170150
Observed Flight Rules
May-22 @ 16:56 UTC (59 minutes ago) Visual Flight Rules
Wind Visibility Clouds
Variable at 4 knots 10 miles
  • Clear skies
Temperatures Readings
Current 22°C / 72°F
Dewpoint 15°C / 59°F
Humidity 65%
Altimeter 30.03" Hg
Pressure 1016.7 hPa
Elevation 359
METAR KMML 221656Z AUTO VRB04KT 10SM CLR 22/15 A3003 RMK AO2 SLP167 T02170150
Observed Flight Rules
May-22 @ 16:56 UTC
(59 minutes ago)
VFR
Wind Visibility
Variable at 4 knots 10 miles
Clouds
  • Clear skies
Temperature Dewpoint
22°C / 72°F 15°C / 59°F
Humidity Altimeter Pressure
65% 30.03" Hg 1016.7 hPa